Time;durP1;ratioP1;P1;durP2;ratioP2;P2;SDS_P1;SDS_P2;PMS_P1;PMS_P2;Temp;Humidity;BMP_temperature;BMP_pressure;BME280_temperature;BME280_humidity;BME280_pressure;Samples;Min_cycle;Max_cycle;Signal;HPM_P1;HPM_P2
2022/10/09 00:01:15;;;;;;;1.27;1.15;;;9.50;99.90;;;;;;4966953;28;20488;-74
2022/10/09 00:03:43;;;;;;;1.02;0.75;;;9.50;99.90;;;;;;4968640;28;20027;-75
2022/10/09 00:06:11;;;;;;;12.35;1.60;;;9.40;99.90;;;;;;4970934;28;20470;-74
2022/10/09 00:08:38;;;;;;;0.82;0.82;;;9.40;99.90;;;;;;4967010;28;20029;-74
2022/10/09 00:11:06;;;;;;;0.32;0.32;;;9.40;99.90;;;;;;4967412;28;20042;-74
2022/10/09 00:13:32;;;;;;;1.27;1.17;;;9.30;99.90;;;;;;4967581;28;20193;-76
2022/10/09 00:16:03;;;;;;;0.85;0.82;;;9.30;99.90;;;;;;4968274;28;20059;-74
2022/10/09 00:18:30;;;;;;;2.63;1.23;;;9.20;99.90;;;;;;4968151;28;20050;-75
2022/10/09 00:20:55;;;;;;;1.13;1.05;;;9.10;99.90;;;;;;4968427;28;20367;-75
2022/10/09 00:23:21;;;;;;;3.67;1.70;;;9.00;99.90;;;;;;4967740;28;20077;-74
2022/10/09 00:25:59;;;;;;;2.15;0.90;;;9.00;99.90;;;;;;4968073;28;20383;-74
2022/10/09 00:28:27;;;;;;;7.63;1.80;;;8.90;99.90;;;;;;4953909;28;20519;-74
2022/10/09 00:30:53;;;;;;;1.20;0.70;;;8.80;99.90;;;;;;4968112;28;20026;-74
2022/10/09 00:33:20;;;;;;;1.00;1.00;;;8.70;99.90;;;;;;4968476;28;20480;-74
2022/10/09 00:35:46;;;;;;;1.45;1.08;;;8.60;99.90;;;;;;4968047;28;20023;-75
2022/10/09 00:38:12;;;;;;;0.75;0.47;;;8.50;99.90;;;;;;4967644;28;20031;-74
2022/10/09 00:40:38;;;;;;;1.65;1.00;;;8.50;99.90;;;;;;4968049;28;20026;-75
2022/10/09 00:43:12;;;;;;;1.20;1.15;;;8.50;99.90;;;;;;4966260;28;20034;-74
2022/10/09 00:45:40;;;;;;;2.03;1.05;;;8.40;99.90;;;;;;4967528;28;20031;-74
2022/10/09 00:48:09;;;;;;;3.00;1.35;;;8.40;99.90;;;;;;4967591;28;20029;-75
2022/10/09 00:50:41;;;;;;;1.65;1.55;;;8.30;99.90;;;;;;4967388;28;20027;-74
2022/10/09 00:53:11;;;;;;;2.03;1.55;;;8.30;99.90;;;;;;4967894;28;20130;-75
2022/10/09 00:55:37;;;;;;;1.48;1.08;;;8.30;99.90;;;;;;4967840;28;20026;-74
2022/10/09 00:58:04;;;;;;;0.63;0.63;;;8.20;99.90;;;;;;4966401;28;20381;-74
2022/10/09 01:00:30;;;;;;;0.50;0.50;;;;;;;;;;4967376;28;20031;-75
2022/10/09 01:02:56;;;;;;;1.83;1.17;;;8.20;99.90;;;;;;4967605;28;20046;-74
2022/10/09 01:05:32;;;;;;;1.60;0.85;;;8.10;99.90;;;;;;4967660;28;20085;-74
2022/10/09 01:08:19;;;;;;;20.17;1.35;;;8.00;99.90;;;;;;4966731;28;20034;-74
2022/10/09 01:10:56;;;;;;;0.80;0.80;;;8.00;99.90;;;;;;4968269;28;20062;-76
2022/10/09 01:13:33;;;;;;;1.85;1.40;;;7.90;99.90;;;;;;4969444;28;20031;-74
2022/10/09 01:16:22;;;;;;;5.88;1.63;;;8.00;99.90;;;;;;4968280;28;20495;-74
2022/10/09 01:18:57;;;;;;;1.25;1.17;;;8.00;99.90;;;;;;4968868;28;20042;-74
2022/10/09 01:21:30;;;;;;;0.50;0.50;;;8.00;99.90;;;;;;4970132;28;20329;-74
2022/10/09 01:24:10;;;;;;;1.98;1.77;;;8.00;99.90;;;;;;4969580;28;20031;-75
2022/10/09 01:26:50;;;;;;;;;;;8.00;99.90;;;;;;4970929;28;20023;-75
2022/10/09 01:29:20;;;;;;;5.35;1.38;;;8.00;99.90;;;;;;4971258;28;19917;-75
2022/10/09 01:31:48;;;;;;;0.95;0.95;;;8.00;99.90;;;;;;4974217;28;20110;-74
2022/10/09 01:34:16;;;;;;;2.22;1.15;;;7.90;99.90;;;;;;4974992;28;20062;-74
2022/10/09 01:36:43;;;;;;;2.13;1.17;;;7.90;99.90;;;;;;4974788;28;20026;-74
2022/10/09 01:39:14;;;;;;;3.30;1.80;;;7.90;99.90;;;;;;4974586;28;20030;-76
2022/10/09 01:41:40;;;;;;;2.42;1.17;;;7.80;99.90;;;;;;4974528;28;20514;-75
2022/10/09 01:44:29;;;;;;;1.40;1.30;;;7.70;99.90;;;;;;4973138;28;20121;-74
2022/10/09 01:46:55;;;;;;;;;;;7.70;99.90;;;;;;4975280;28;20384;-74
2022/10/09 01:49:35;;;;;;;0.65;0.63;;;7.60;99.90;;;;;;4974846;28;19917;-74
2022/10/09 01:52:09;;;;;;;14.75;2.50;;;7.60;99.90;;;;;;4974545;28;20030;-75
2022/10/09 01:55:05;;;;;;;2.22;1.13;;;7.50;99.90;;;;;;4974537;28;20027;-76
2022/10/09 01:57:45;;;;;;;1.48;0.80;;;7.50;99.90;;;;;;4974300;28;20095;-75
2022/10/09 02:00:12;;;;;;;4.00;1.30;;;7.50;99.90;;;;;;4974412;28;20031;-75
2022/10/09 02:02:40;;;;;;;1.50;1.40;;;7.40;99.90;;;;;;4974532;28;20539;-74
2022/10/09 02:05:13;;;;;;;2.03;1.92;;;7.30;99.90;;;;;;4974296;28;20296;-75
2022/10/09 02:07:39;;;;;;;1.00;0.82;;;7.30;99.90;;;;;;4974305;28;20139;-75
2022/10/09 02:10:08;;;;;;;3.13;1.77;;;7.20;99.90;;;;;;4974321;28;20444;-75
2022/10/09 02:12:38;;;;;;;7.30;1.08;;;7.10;99.90;;;;;;4974132;28;20022;-74
2022/10/09 02:15:05;;;;;;;1.38;1.27;;;7.10;99.90;;;;;;4974176;28;20038;-75
2022/10/09 02:17:36;;;;;;;1.05;0.75;;;7.00;99.90;;;;;;4974014;28;20023;-75
2022/10/09 02:20:18;;;;;;;1.05;1.00;;;7.00;99.90;;;;;;4974512;28;20058;-74
2022/10/09 02:22:45;;;;;;;2.45;1.45;;;7.00;99.90;;;;;;4974277;28;20089;-75
2022/10/09 02:25:11;;;;;;;1.33;1.00;;;7.00;99.90;;;;;;4973991;28;20098;-75
2022/10/09 02:27:40;;;;;;;2.42;1.50;;;7.00;99.90;;;;;;4972546;28;20034;-74
2022/10/09 02:30:08;;;;;;;3.55;2.63;;;6.90;99.90;;;;;;4974092;28;20027;-74
2022/10/09 02:32:34;;;;;;;1.40;1.40;;;6.90;99.90;;;;;;4973840;28;20483;-74
2022/10/09 02:35:00;;;;;;;1.42;1.33;;;;;;;;;;4973587;28;20556;-75
2022/10/09 02:37:26;;;;;;;1.83;1.02;;;6.80;99.90;;;;;;4973712;28;20101;-75
2022/10/09 02:39:51;;;;;;;1.40;0.98;;;6.70;99.90;;;;;;4973824;28;20379;-74
2022/10/09 02:42:17;;;;;;;1.75;1.65;;;6.60;99.90;;;;;;4972761;28;20054;-74
2022/10/09 02:44:43;;;;;;;2.45;1.48;;;6.70;99.90;;;;;;4973358;28;20027;-74
2022/10/09 02:47:08;;;;;;;18.05;1.50;;;6.70;99.90;;;;;;4973646;28;20058;-76
2022/10/09 02:49:34;;;;;;;1.30;1.20;;;6.70;99.90;;;;;;4973493;28;20019;-74
2022/10/09 02:52:00;;;;;;;3.55;1.38;;;;;;;;;;4973654;28;20380;-75
2022/10/09 02:54:26;;;;;;;1.00;1.00;;;;;;;;;;4973379;28;20480;-75
2022/10/09 02:56:51;;;;;;;1.90;1.17;;;6.60;99.90;;;;;;4973485;28;20038;-76
2022/10/09 02:59:17;;;;;;;4.68;2.47;;;6.60;99.90;;;;;;4973014;28;20031;-75
2022/10/09 03:01:43;;;;;;;0.90;0.77;;;6.50;99.90;;;;;;4973292;28;20181;-74
2022/10/09 03:04:09;;;;;;;2.55;2.25;;;6.50;99.90;;;;;;4973367;28;20033;-74
2022/10/09 03:06:35;;;;;;;2.58;1.27;;;6.50;99.90;;;;;;4971688;28;20400;-74
2022/10/09 03:09:00;;;;;;;1.15;1.15;;;6.50;99.90;;;;;;4972950;28;20023;-74
2022/10/09 03:11:26;;;;;;;1.48;0.95;;;6.40;99.90;;;;;;4973594;28;20467;-74
2022/10/09 03:13:53;;;;;;;4.13;1.83;;;;;;;;;;4973430;28;20045;-74
2022/10/09 03:16:21;;;;;;;1.75;1.63;;;6.50;99.90;;;;;;4972937;28;20069;-75
2022/10/09 03:18:47;;;;;;;4.53;2.10;;;6.40;99.90;;;;;;4973131;28;20023;-75
2022/10/09 03:21:16;;;;;;;1.63;1.33;;;6.50;99.90;;;;;;4973084;28;20037;-75
2022/10/09 03:23:42;;;;;;;2.88;2.42;;;;;;;;;;4972928;28;20026;-74
2022/10/09 03:26:10;;;;;;;4.35;2.55;;;6.50;99.90;;;;;;4972836;28;20468;-74
2022/10/09 03:28:38;;;;;;;2.40;1.33;;;6.60;99.90;;;;;;4972779;28;20195;-75
2022/10/09 03:31:04;;;;;;;1.88;1.45;;;6.60;99.90;;;;;;4972500;28;20031;-75
2022/10/09 03:33:30;;;;;;;5.70;2.42;;;6.60;99.90;;;;;;4971474;28;20035;-75
2022/10/09 03:35:56;;;;;;;3.30;2.28;;;;;;;;;;4972821;28;20435;-75
2022/10/09 03:38:21;;;;;;;2.28;2.08;;;6.50;99.90;;;;;;4972996;28;20042;-74
2022/10/09 03:40:47;;;;;;;2.50;2.03;;;6.50;99.90;;;;;;4971433;28;20483;-74
2022/10/09 03:43:13;;;;;;;2.10;1.48;;;6.40;99.90;;;;;;4972621;28;20034;-74
2022/10/09 03:45:39;;;;;;;1.00;1.00;;;;;;;;;;4972502;28;20030;-74
2022/10/09 03:48:05;;;;;;;2.20;2.10;;;6.50;99.90;;;;;;4972760;28;20027;-75
2022/10/09 03:50:31;;;;;;;3.92;2.53;;;;;;;;;;4972619;28;20026;-76
2022/10/09 03:52:57;;;;;;;3.03;1.90;;;;;;;;;;4972343;28;20476;-76
2022/10/09 03:55:23;;;;;;;4.68;2.97;;;6.70;99.90;;;;;;4972341;28;20098;-75
2022/10/09 03:57:49;;;;;;;3.90;2.40;;;6.80;99.90;;;;;;4972388;28;20110;-74
2022/10/09 04:00:15;;;;;;;6.50;2.13;;;7.00;99.90;;;;;;4971981;28;20488;-74
2022/10/09 04:02:41;;;;;;;3.45;2.25;;;7.00;99.90;;;;;;4972132;28;20019;-75
2022/10/09 04:05:07;;;;;;;20.38;4.28;;;7.10;99.90;;;;;;4971987;28;20127;-75
2022/10/09 04:07:33;;;;;;;5.70;3.50;;;7.20;99.90;;;;;;4970668;28;20499;-76
2022/10/09 04:09:59;;;;;;;3.28;2.25;;;7.30;99.90;;;;;;4972131;28;20138;-76
2022/10/09 04:12:24;;;;;;;3.85;3.45;;;7.40;99.90;;;;;;4971915;28;20043;-74
2022/10/09 04:14:50;;;;;;;4.70;3.42;;;7.40;99.90;;;;;;4972342;28;20030;-74
2022/10/09 04:17:16;;;;;;;4.60;2.92;;;;;;;;;;4972021;28;20031;-75
2022/10/09 04:19:42;;;;;;;3.88;2.58;;;7.40;99.90;;;;;;4971869;28;20014;-74
2022/10/09 04:22:08;;;;;;;6.15;2.85;;;7.50;99.90;;;;;;4972204;28;20145;-74
2022/10/09 04:24:34;;;;;;;5.97;3.88;;;;;;;;;;4971573;28;20065;-74
2022/10/09 04:26:59;;;;;;;6.85;3.80;;;7.60;99.90;;;;;;4971610;28;20178;-76
2022/10/09 04:29:25;;;;;;;4.35;3.20;;;7.60;99.90;;;;;;4971906;28;20113;-74
2022/10/09 04:31:51;;;;;;;6.97;3.63;;;7.60;99.90;;;;;;4972181;28;20019;-74
2022/10/09 04:34:17;;;;;;;6.00;3.63;;;7.60;99.90;;;;;;4971659;28;20057;-75
2022/10/09 04:36:42;;;;;;;11.60;3.28;;;7.70;99.90;;;;;;4971798;28;20023;-74
2022/10/09 04:39:08;;;;;;;5.22;3.53;;;7.70;99.90;;;;;;4971329;28;20499;-75
2022/10/09 04:41:34;;;;;;;18.85;3.63;;;;;;;;;;4971410;28;20031;-75
2022/10/09 04:44:00;;;;;;;5.18;3.15;;;7.80;99.90;;;;;;4969882;28;20039;-75
2022/10/09 04:46:26;;;;;;;4.40;2.58;;;7.70;99.90;;;;;;4971397;28;20023;-74
2022/10/09 04:48:51;;;;;;;4.63;3.53;;;7.60;99.90;;;;;;4971375;28;20073;-77
2022/10/09 04:51:17;;;;;;;6.07;4.05;;;7.70;99.90;;;;;;4970118;28;20035;-74
2022/10/09 04:53:44;;;;;;;6.57;3.65;;;7.70;99.90;;;;;;4971153;28;20117;-75
2022/10/09 04:56:16;;;;;;;6.85;3.38;;;7.80;99.90;;;;;;4971448;28;20353;-74
2022/10/09 04:58:42;;;;;;;4.20;3.80;;;7.70;99.90;;;;;;4971198;28;20113;-74
2022/10/09 05:01:10;;;;;;;8.90;3.65;;;7.70;99.90;;;;;;4970700;28;20366;-75
2022/10/09 05:03:36;;;;;;;6.90;3.60;;;7.70;99.90;;;;;;4971550;28;20037;-74
2022/10/09 05:06:03;;;;;;;4.88;3.90;;;7.70;99.90;;;;;;4970844;28;20125;-75
2022/10/09 05:08:30;;;;;;;9.43;5.35;;;7.60;99.90;;;;;;4971127;28;20041;-74
2022/10/09 05:11:03;;;;;;;10.00;3.63;;;7.60;99.90;;;;;;4971156;28;20026;-75
2022/10/09 05:13:35;;;;;;;11.40;3.50;;;7.60;99.90;;;;;;4971104;28;20062;-75
2022/10/09 05:16:06;;;;;;;9.48;3.80;;;7.60;99.90;;;;;;4970897;28;20038;-74
2022/10/09 05:18:32;;;;;;;8.45;3.75;;;7.60;99.90;;;;;;4971119;28;20030;-74
2022/10/09 05:20:58;;;;;;;4.30;3.85;;;;;;;;;;4971259;28;20062;-74
2022/10/09 05:23:23;;;;;;;6.28;2.85;;;7.50;99.90;;;;;;4972049;28;20063;-74
2022/10/09 05:25:57;;;;;;;6.72;4.45;;;7.40;99.90;;;;;;4986008;28;20458;-76
2022/10/09 05:28:23;;;;;;;6.03;4.35;;;7.40;99.90;;;;;;4970979;28;20098;-75
2022/10/09 05:30:49;;;;;;;8.02;4.40;;;;;;;;;;4971061;28;20519;-74
2022/10/09 05:33:15;;;;;;;17.67;4.60;;;7.50;99.90;;;;;;4970888;28;20043;-77
2022/10/09 05:35:53;;;;;;;3.58;3.22;;;7.50;99.90;;;;;;4970835;28;20302;-74
2022/10/09 05:38:19;;;;;;;5.70;3.47;;;7.40;99.90;;;;;;4970779;28;20082;-74
2022/10/09 05:40:59;;;;;;;8.15;3.55;;;7.50;99.90;;;;;;4970953;28;20034;-75
2022/10/09 05:43:27;;;;;;;5.20;2.60;;;7.50;99.90;;;;;;4970712;28;20022;-75
2022/10/09 05:45:53;;;;;;;5.70;2.78;;;7.50;99.90;;;;;;4970659;28;20026;-74
2022/10/09 05:48:20;;;;;;;6.25;3.70;;;7.50;99.90;;;;;;4970973;28;20027;-74
2022/10/09 05:50:46;;;;;;;7.65;3.13;;;7.40;99.90;;;;;;4971065;28;20125;-74
2022/10/09 05:53:11;;;;;;;6.63;4.47;;;7.50;99.90;;;;;;4970816;28;20126;-76
2022/10/09 05:55:37;;;;;;;7.20;3.65;;;7.50;99.90;;;;;;4970577;28;20031;-74
2022/10/09 05:58:03;;;;;;;5.50;3.50;;;7.50;99.90;;;;;;4970525;28;20027;-75
2022/10/09 06:00:29;;;;;;;4.88;3.92;;;7.40;99.90;;;;;;4970339;28;20372;-74
2022/10/09 06:02:55;;;;;;;4.00;2.63;;;7.50;99.90;;;;;;4970506;28;20038;-74
2022/10/09 06:05:20;;;;;;;4.82;3.88;;;7.50;99.90;;;;;;4970575;28;20046;-75
2022/10/09 06:07:46;;;;;;;5.32;4.03;;;7.60;99.90;;;;;;4970825;28;20502;-74
2022/10/09 06:10:12;;;;;;;6.07;2.45;;;7.60;99.90;;;;;;4970707;28;20109;-76
2022/10/09 06:12:38;;;;;;;4.90;2.55;;;7.50;99.90;;;;;;4972951;28;20107;-74
2022/10/09 06:15:05;;;;;;;3.67;2.70;;;7.50;99.90;;;;;;4969994;28;20115;-75
2022/10/09 06:17:32;;;;;;;3.10;2.63;;;7.50;99.90;;;;;;4971642;28;20564;-74
2022/10/09 06:19:57;;;;;;;6.05;3.05;;;7.50;99.90;;;;;;4972977;28;20055;-74
2022/10/09 06:22:23;;;;;;;3.83;3.22;;;7.50;99.90;;;;;;4974089;28;20065;-75
2022/10/09 06:24:49;;;;;;;3.63;2.67;;;7.60;99.90;;;;;;4974539;28;20027;-75
2022/10/09 06:27:14;;;;;;;5.35;3.00;;;7.60;99.90;;;;;;4974003;28;20107;-74
2022/10/09 06:29:40;;;;;;;7.72;2.80;;;7.60;99.90;;;;;;4973591;28;20031;-74
2022/10/09 06:32:06;;;;;;;4.50;2.83;;;7.60;99.90;;;;;;4973659;28;20383;-74
2022/10/09 06:34:32;;;;;;;3.83;2.30;;;7.60;99.90;;;;;;4973863;28;20074;-74
2022/10/09 06:36:57;;;;;;;5.53;2.75;;;7.50;99.90;;;;;;4973670;28;20027;-74
2022/10/09 06:39:25;;;;;;;4.07;3.25;;;7.70;99.90;;;;;;4973826;28;20030;-75
2022/10/09 06:41:51;;;;;;;4.20;2.50;;;7.70;99.90;;;;;;4973912;28;20018;-74
2022/10/09 06:44:17;;;;;;;4.25;3.38;;;7.80;99.90;;;;;;4973999;28;20038;-76
2022/10/09 06:46:44;;;;;;;6.47;3.20;;;7.90;99.90;;;;;;4972613;28;20023;-75
2022/10/09 06:49:10;;;;;;;5.10;2.90;;;8.00;99.90;;;;;;4974396;28;20038;-76
2022/10/09 06:51:36;;;;;;;6.57;2.83;;;8.10;99.90;;;;;;4973168;28;20023;-75
2022/10/09 06:54:06;;;;;;;10.52;3.03;;;8.30;99.90;;;;;;4973440;28;20078;-75
2022/10/09 06:56:31;;;;;;;;;;;8.40;99.90;;;;;;4973986;28;20019;-75
2022/10/09 06:59:02;;;;;;;3.80;2.65;;;8.50;99.90;;;;;;4973192;28;19977;-76
2022/10/09 07:01:30;;;;;;;3.22;2.40;;;8.60;99.90;;;;;;4973322;28;20102;-76
2022/10/09 07:03:59;;;;;;;2.40;2.20;;;8.60;99.90;;;;;;4973232;28;20030;-75
2022/10/09 07:06:27;;;;;;;5.35;2.33;;;8.60;99.90;;;;;;4972980;28;20054;-75
2022/10/09 07:08:57;;;;;;;5.87;3.33;;;8.70;99.90;;;;;;4972993;28;20030;-76
2022/10/09 07:11:53;;;;;;;4.55;2.55;;;8.70;99.90;;;;;;4969625;28;20085;-76
2022/10/09 07:14:19;;;;;;;6.55;2.55;;;8.80;99.90;;;;;;4971141;28;20129;-75
2022/10/09 07:16:47;;;;;;;4.28;2.58;;;8.80;99.90;;;;;;4971714;28;20484;-76
2022/10/09 07:19:14;;;;;;;5.22;2.95;;;8.70;99.90;;;;;;4986933;28;20406;-76
2022/10/09 07:21:43;;;;;;;6.03;3.10;;;8.60;99.90;;;;;;4972621;28;20023;-76
2022/10/09 07:24:09;;;;;;;4.47;2.42;;;8.60;99.90;;;;;;4972173;28;20034;-74
2022/10/09 07:26:38;;;;;;;4.88;2.50;;;8.80;99.90;;;;;;4972090;28;20029;-75
2022/10/09 07:29:06;;;;;;;4.40;2.72;;;9.00;99.90;;;;;;4971876;28;20150;-75
2022/10/09 07:31:32;;;;;;;3.75;2.72;;;9.10;99.90;;;;;;4967276;28;20034;-74
2022/10/09 07:33:57;;;;;;;3.70;2.92;;;9.10;99.90;;;;;;4972612;28;20034;-76
2022/10/09 07:36:23;;;;;;;4.85;2.15;;;9.10;99.90;;;;;;4972711;28;20019;-75
2022/10/09 07:38:59;;;;;;;5.10;3.75;;;9.10;99.90;;;;;;4969302;28;20195;-76
2022/10/09 07:41:28;;;;;;;4.80;2.72;;;8.90;99.90;;;;;;4973158;28;20567;-75
2022/10/09 07:43:54;;;;;;;4.30;1.93;;;8.90;99.90;;;;;;4972899;28;20058;-75
2022/10/09 07:46:21;;;;;;;4.88;2.53;;;8.90;99.90;;;;;;4972466;28;20522;-75
2022/10/09 07:48:47;;;;;;;3.78;2.85;;;9.00;99.90;;;;;;4971260;28;20050;-74
2022/10/09 07:51:24;;;;;;;7.10;2.45;;;9.00;99.90;;;;;;4972628;28;20183;-74
2022/10/09 07:53:51;;;;;;;4.90;3.03;;;9.10;99.90;;;;;;4955937;28;20039;-74
2022/10/09 07:56:22;;;;;;;3.28;2.67;;;9.30;99.90;;;;;;4953011;28;20023;-76
2022/10/09 07:58:52;;;;;;;3.13;2.60;;;9.40;99.90;;;;;;4952428;28;20043;-76
2022/10/09 08:01:19;;;;;;;3.20;2.35;;;9.60;99.90;;;;;;4952717;28;20474;-75
2022/10/09 08:03:45;;;;;;;2.83;2.28;;;9.60;99.90;;;;;;4953102;28;20143;-76
2022/10/09 08:06:11;;;;;;;5.32;2.40;;;9.60;99.90;;;;;;4953017;28;20131;-76
2022/10/09 08:08:36;;;;;;;3.53;3.20;;;9.70;99.90;;;;;;4953039;28;20118;-77
2022/10/09 08:11:14;;;;;;;6.25;3.00;;;9.60;99.90;;;;;;4952747;28;20030;-74
2022/10/09 08:13:40;;;;;;;3.80;2.78;;;9.70;99.90;;;;;;4952117;28;20050;-74
2022/10/09 08:16:06;;;;;;;6.15;2.83;;;9.90;99.90;;;;;;4965295;28;20487;-75
2022/10/09 08:18:32;;;;;;;8.05;2.50;;;9.80;99.90;;;;;;4971460;28;20031;-75
2022/10/09 08:21:00;;;;;;;4.93;2.88;;;9.90;99.90;;;;;;4970498;28;20019;-74
2022/10/09 08:23:26;;;;;;;3.25;2.50;;;9.80;99.90;;;;;;4970519;28;20110;-76
2022/10/09 08:25:52;;;;;;;7.80;2.30;;;9.80;99.90;;;;;;4971326;28;20023;-75
2022/10/09 08:28:18;;;;;;;2.83;2.42;;;9.90;99.90;;;;;;4971610;28;20089;-74
2022/10/09 08:30:44;;;;;;;6.07;2.63;;;10.00;99.90;;;;;;4971459;28;20023;-75
2022/10/09 08:33:10;;;;;;;3.92;2.20;;;9.90;99.90;;;;;;4969915;28;20762;-74
2022/10/09 08:35:36;;;;;;;6.88;3.65;;;10.10;99.90;;;;;;4971430;28;20026;-74
2022/10/09 08:38:01;;;;;;;11.23;3.60;;;10.20;99.90;;;;;;4971467;28;20038;-75
2022/10/09 08:40:44;;;;;;;4.97;2.80;;;10.60;99.90;;;;;;4970744;28;20038;-74
2022/10/09 08:43:16;;;;;;;4.40;3.03;;;10.80;99.90;;;;;;4970479;28;20027;-74
2022/10/09 08:45:44;;;;;;;4.72;3.28;;;10.60;99.90;;;;;;4970988;28;20033;-75
2022/10/09 08:48:16;;;;;;;5.82;2.70;;;10.40;99.90;;;;;;4971599;28;20045;-74
2022/10/09 08:50:47;;;;;;;4.57;2.72;;;10.60;99.90;;;;;;4971283;28;20045;-74
2022/10/09 08:53:47;;;;;;;2.60;2.40;;;11.00;99.90;;;;;;4971115;28;20031;-75
2022/10/09 08:56:14;;;;;;;3.88;2.65;;;11.10;99.90;;;;;;4971190;28;20361;-74
2022/10/09 08:58:42;;;;;;;2.33;2.15;;;11.20;99.90;;;;;;4970816;28;20034;-75
2022/10/09 09:01:26;;;;;;;3.50;2.58;;;11.10;99.90;;;;;;4971017;28;20038;-75
2022/10/09 09:04:32;;;;;;;2.92;2.38;;;11.10;99.90;;;;;;4971004;28;20027;-75
2022/10/09 09:07:21;;;;;;;3.47;1.63;;;11.40;99.90;;;;;;4970776;28;20520;-76
2022/10/09 09:10:21;;;;;;;5.82;3.20;;;11.70;99.90;;;;;;4971014;28;20019;-75
2022/10/09 09:13:14;;;;;;;2.05;1.77;;;11.90;99.90;;;;;;4970737;28;20035;-76
2022/10/09 09:16:00;;;;;;;5.75;3.53;;;12.60;99.90;;;;;;4969953;28;20224;-76
2022/10/09 09:19:08;;;;;;;2.60;2.20;;;12.70;99.90;;;;;;4968772;28;20062;-75
2022/10/09 09:21:47;;;;;;;2.53;2.30;;;12.50;99.90;;;;;;4970071;28;20069;-76
2022/10/09 09:24:18;;;;;;;4.20;1.70;;;12.40;99.90;;;;;;4961042;28;20564;-76
2022/10/09 09:26:48;;;;;;;2.10;1.90;;;12.10;99.90;;;;;;4978623;28;20043;-75
2022/10/09 09:29:19;;;;;;;1.58;1.25;;;11.90;99.90;;;;;;4985945;28;20041;-76
2022/10/09 09:31:46;;;;;;;1.65;1.33;;;11.80;99.90;;;;;;4967635;28;20046;-75
2022/10/09 09:34:19;;;;;;;1.58;1.48;;;11.60;99.90;;;;;;4968691;28;20117;-76
2022/10/09 09:36:57;;;;;;;1.45;1.35;;;11.60;99.90;;;;;;4969374;28;20034;-76
2022/10/09 09:39:26;;;;;;;2.83;2.10;;;11.60;99.90;;;;;;4971826;28;20109;-76
2022/10/09 09:42:01;;;;;;;2.30;2.03;;;11.50;99.90;;;;;;4969342;28;20061;-76
2022/10/09 09:44:29;;;;;;;1.77;1.60;;;11.60;99.90;;;;;;4969388;28;20015;-76
2022/10/09 09:46:55;;;;;;;2.80;2.35;;;11.40;99.90;;;;;;4970648;28;20031;-76
2022/10/09 09:49:26;;;;;;;2.22;1.92;;;11.30;99.90;;;;;;4967709;28;20031;-76
2022/10/09 09:51:53;;;;;;;8.18;3.22;;;11.30;99.90;;;;;;4970730;28;20106;-76
2022/10/09 09:54:25;;;;;;;2.95;2.65;;;11.30;99.90;;;;;;4972152;28;20031;-75
2022/10/09 09:56:57;;;;;;;3.88;2.00;;;11.50;99.90;;;;;;4970622;28;20097;-76
2022/10/09 09:59:36;;;;;;;3.47;2.00;;;11.40;99.90;;;;;;4988546;28;20015;-77
2022/10/09 10:02:11;;;;;;;1.80;1.67;;;11.20;99.90;;;;;;4954620;28;20039;-75
2022/10/09 10:04:37;;;;;;;3.13;2.17;;;11.00;99.90;;;;;;4955175;28;20051;-76
2022/10/09 10:07:04;;;;;;;5.30;2.97;;;11.10;99.90;;;;;;4955635;28;20508;-76
2022/10/09 10:09:30;;;;;;;3.60;2.45;;;11.10;99.90;;;;;;4974051;28;20019;-77
2022/10/09 10:12:02;;;;;;;3.80;2.30;;;11.10;99.90;;;;;;4974192;28;20042;-75
2022/10/09 10:14:29;;;;;;;4.72;2.92;;;10.90;99.90;;;;;;4974262;28;20120;-76
2022/10/09 10:16:57;;;;;;;2.42;2.22;;;11.00;99.90;;;;;;4974837;28;20074;-77
2022/10/09 10:19:34;;;;;;;5.90;2.53;;;11.20;99.90;;;;;;4990585;28;20023;-74
2022/10/09 10:22:05;;;;;;;14.88;2.65;;;11.30;99.90;;;;;;4978716;28;20026;-75
2022/10/09 10:24:41;;;;;;;4.57;3.00;;;11.40;99.90;;;;;;4974056;28;20411;-75
2022/10/09 10:27:24;;;;;;;6.68;2.38;;;11.60;99.90;;;;;;4978286;28;20027;-75
2022/10/09 10:29:57;;;;;;;3.83;2.50;;;11.60;99.90;;;;;;4973418;28;20038;-76
2022/10/09 10:32:43;;;;;;;5.97;2.17;;;11.80;99.90;;;;;;4974493;28;20069;-75
2022/10/09 10:35:16;;;;;;;3.50;2.10;;;11.90;99.90;;;;;;4971654;28;20058;-77
2022/10/09 10:38:16;;;;;;;4.53;2.15;;;12.20;99.90;;;;;;4983108;28;20423;-76
2022/10/09 10:40:49;;;;;;;6.75;1.95;;;12.50;99.90;;;;;;4984529;28;20068;-74
2022/10/09 10:43:43;;;;;;;5.05;2.85;;;12.50;99.90;;;;;;4982770;28;20045;-75
2022/10/09 10:46:24;;;;;;;3.97;2.45;;;12.50;99.90;;;;;;4976579;28;20043;-75
2022/10/09 10:48:50;;;;;;;7.68;2.58;;;12.60;99.90;;;;;;4994570;28;20333;-76
2022/10/09 10:51:47;;;;;;;3.33;2.40;;;12.70;99.90;;;;;;4979011;28;20419;-75
2022/10/09 10:54:24;;;;;;;3.15;2.25;;;13.00;99.90;;;;;;4978319;28;20027;-76
2022/10/09 10:57:03;;;;;;;5.70;3.60;;;13.20;99.90;;;;;;4978504;28;20034;-75
2022/10/09 10:59:36;;;;;;;4.40;2.63;;;13.30;99.90;;;;;;4995873;28;20026;-76
2022/10/09 11:02:47;;;;;;;4.60;2.17;;;13.40;99.90;;;;;;4981320;28;20018;-77
2022/10/09 11:05:41;;;;;;;9.15;3.00;;;13.60;99.90;;;;;;4981396;28;20050;-75
2022/10/09 11:08:28;;;;;;;5.88;3.15;;;13.60;99.90;;;;;;4998186;28;20038;-76
2022/10/09 11:11:06;;;;;;;3.03;2.60;;;13.60;99.90;;;;;;4981324;28;20046;-77
2022/10/09 11:13:40;;;;;;;5.95;3.47;;;13.80;99.90;;;;;;4999243;28;20306;-76
2022/10/09 11:16:27;;;;;;;7.15;2.72;;;13.90;99.90;;;;;;4984707;28;20086;-79
2022/10/09 11:19:02;;;;;;;5.57;3.00;;;14.00;99.90;;;;;;4996560;28;20283;-79
2022/10/09 11:21:52;;;;;;;8.32;2.05;;;14.20;99.90;;;;;;4984370;28;20291;-75
2022/10/09 11:24:45;;;;;;;2.75;2.45;;;14.30;99.90;;;;;;4981196;28;20031;-79
2022/10/09 11:27:25;;;;;;;7.40;5.20;;;14.50;99.90;;;;;;4975108;28;20035;-75
2022/10/09 11:30:00;;;;;;;6.93;3.28;;;14.50;99.90;;;;;;4962603;29;20308;-75
2022/10/09 11:32:35;;;;;;;5.47;2.00;;;14.60;99.90;;;;;;4964295;28;20051;-76
2022/10/09 11:35:21;;;;;;;2.25;1.80;;;14.70;99.90;;;;;;4969107;28;20024;-78
2022/10/09 11:37:56;;;;;;;2.05;1.75;;;14.70;99.90;;;;;;4983560;28;20030;-78
2022/10/09 11:40:28;;;;;;;1.42;1.33;;;14.70;99.90;;;;;;4983261;28;20023;-79
2022/10/09 11:43:05;;;;;;;2.47;2.30;;;14.70;99.90;;;;;;4982288;28;20073;-78
2022/10/09 11:45:49;;;;;;;5.85;1.95;;;15.00;99.90;;;;;;4984080;28;20019;-77
2022/10/09 11:48:25;;;;;;;1.27;1.20;;;15.00;99.90;;;;;;4983721;28;20022;-78
2022/10/09 11:50:54;;;;;;;7.45;2.28;;;15.20;99.90;;;;;;4981237;28;20019;-78
2022/10/09 11:53:24;;;;;;;1.77;1.10;;;15.30;99.90;;;;;;4963941;28;20039;-78
2022/10/09 11:56:21;;;;;;;1.80;1.60;;;15.50;99.90;;;;;;4972741;28;20019;-77
2022/10/09 11:58:58;;;;;;;1.88;1.52;;;15.70;99.90;;;;;;4982567;28;20042;-75
2022/10/09 12:01:39;;;;;;;2.13;0.90;;;15.80;99.90;;;;;;4991178;28;20019;-76
2022/10/09 12:04:15;;;;;;;3.97;1.60;;;16.10;99.90;;;;;;4981306;28;20110;-76
2022/10/09 12:06:54;;;;;;;0.93;0.93;;;16.30;99.90;;;;;;4982033;28;20287;-76
2022/10/09 12:09:22;;;;;;;;;;;16.60;99.90;;;;;;4979901;28;20035;-78
2022/10/09 12:12:00;;;;;;;4.90;0.80;;;16.90;99.90;;;;;;4980917;28;20206;-78
2022/10/09 12:14:27;;;;;;;3.25;0.98;;;17.40;99.90;;;;;;4977757;28;20270;-78
2022/10/09 12:16:54;;;;;;;2.25;0.90;;;18.50;99.90;;;;;;4979833;28;20019;-78
2022/10/09 12:19:38;;;;;;;1.35;1.13;;;19.60;99.40;;;;;;4995741;28;20285;-79
2022/10/09 12:22:26;;;;;;;4.18;1.38;;;20.20;93.90;;;;;;4978262;28;20035;-80
2022/10/09 12:24:57;;;;;;;0.82;0.75;;;22.20;75.90;;;;;;4994093;28;20098;-78
2022/10/09 12:27:41;;;;;;;2.67;1.05;;;22.80;69.90;;;;;;4979369;28;20034;-78
2022/10/09 12:30:13;;;;;;;5.63;0.50;;;22.80;68.50;;;;;;4979408;28;20058;-78
2022/10/09 12:33:03;;;;;;;2.15;0.50;;;23.20;67.50;;;;;;4979182;28;20102;-78
2022/10/09 12:35:35;;;;;;;3.03;0.85;;;23.80;64.00;;;;;;4978170;28;20023;-79
2022/10/09 12:38:01;;;;;;;0.52;0.52;;;24.30;61.80;;;;;;4968947;28;20283;-79
2022/10/09 12:40:39;;;;;;;2.92;0.85;;;24.40;60.80;;;;;;4958152;28;20027;-79
2022/10/09 12:43:07;;;;;;;2.72;1.27;;;;;;;;;;4982692;28;20520;-79
2022/10/09 12:45:42;;;;;;;0.63;0.57;;;24.90;59.20;;;;;;4996968;28;20282;-75
2022/10/09 12:48:11;;;;;;;0.30;0.30;;;24.90;60.00;;;;;;4999682;28;20302;-78
2022/10/09 12:50:37;;;;;;;0.55;0.55;;;25.20;59.90;;;;;;5014914;28;20048;-78
2022/10/09 12:53:05;;;;;;;4.05;0.77;;;24.50;58.80;;;;;;4999539;28;20034;-75
2022/10/09 12:55:33;;;;;;;1.45;1.00;;;24.30;60.10;;;;;;4988891;28;20022;-77
2022/10/09 12:58:25;;;;;;;1.02;0.68;;;24.30;60.60;;;;;;4977816;28;20034;-79
2022/10/09 13:01:03;;;;;;;1.10;0.47;;;24.90;59.90;;;;;;4979442;28;20046;-78
2022/10/09 13:03:42;;;;;;;1.23;0.63;;;25.10;57.80;;;;;;4980026;28;20023;-79
2022/10/09 13:06:18;;;;;;;0.73;0.63;;;25.10;58.70;;;;;;4979864;28;20043;-79
2022/10/09 13:08:49;;;;;;;0.50;0.50;;;25.10;57.80;;;;;;4980771;28;20034;-79
2022/10/09 13:11:21;;;;;;;2.22;0.63;;;25.10;57.70;;;;;;4980374;28;20063;-78
2022/10/09 13:13:54;;;;;;;0.57;0.52;;;24.90;58.30;;;;;;4975165;28;20045;-79
2022/10/09 13:16:20;;;;;;;0.55;0.40;;;25.00;57.00;;;;;;4967724;28;20117;-79
2022/10/09 13:19:00;;;;;;;0.85;0.55;;;24.90;58.20;;;;;;4972148;28;20094;-77